sensor_id;sensor_type;location;lat;lon;timestamp;P1;durP1;ratioP1;P2;durP2;ratioP2
15858;SDS011;8029;52.202;7.308;2023-04-25T00:00:25;3.45;;;2.17;;
15858;SDS011;8029;52.202;7.308;2023-04-25T00:02:51;2.65;;;1.88;;
15858;SDS011;8029;52.202;7.308;2023-04-25T00:05:17;1.88;;;1.77;;
15858;SDS011;8029;52.202;7.308;2023-04-25T00:07:44;4.95;;;2.38;;
15858;SDS011;8029;52.202;7.308;2023-04-25T00:10:11;3.55;;;1.70;;
15858;SDS011;8029;52.202;7.308;2023-04-25T00:12:37;1.80;;;1.65;;
15858;SDS011;8029;52.202;7.308;2023-04-25T00:15:04;3.33;;;1.73;;
15858;SDS011;8029;52.202;7.308;2023-04-25T00:17:30;6.40;;;2.33;;
15858;SDS011;8029;52.202;7.308;2023-04-25T00:19:56;3.17;;;1.67;;
15858;SDS011;8029;52.202;7.308;2023-04-25T00:22:23;3.90;;;2.08;;
15858;SDS011;8029;52.202;7.308;2023-04-25T00:24:49;8.90;;;2.67;;
15858;SDS011;8029;52.202;7.308;2023-04-25T00:27:15;6.40;;;2.38;;
15858;SDS011;8029;52.202;7.308;2023-04-25T00:29:41;3.20;;;1.90;;
15858;SDS011;8029;52.202;7.308;2023-04-25T00:32:07;3.22;;;2.10;;
15858;SDS011;8029;52.202;7.308;2023-04-25T00:34:33;8.00;;;2.17;;
15858;SDS011;8029;52.202;7.308;2023-04-25T00:36:59;2.63;;;1.70;;
15858;SDS011;8029;52.202;7.308;2023-04-25T00:39:27;3.47;;;2.08;;
15858;SDS011;8029;52.202;7.308;2023-04-25T00:41:53;4.68;;;2.38;;
15858;SDS011;8029;52.202;7.308;2023-04-25T00:44:19;2.58;;;1.85;;
15858;SDS011;8029;52.202;7.308;2023-04-25T00:46:47;3.35;;;1.88;;
15858;SDS011;8029;52.202;7.308;2023-04-25T00:49:14;4.28;;;1.80;;
15858;SDS011;8029;52.202;7.308;2023-04-25T00:51:41;2.72;;;1.63;;
15858;SDS011;8029;52.202;7.308;2023-04-25T00:54:08;2.65;;;2.22;;
15858;SDS011;8029;52.202;7.308;2023-04-25T00:56:35;14.02;;;2.38;;
15858;SDS011;8029;52.202;7.308;2023-04-25T00:59:01;8.40;;;1.90;;
15858;SDS011;8029;52.202;7.308;2023-04-25T01:01:27;2.47;;;1.70;;
15858;SDS011;8029;52.202;7.308;2023-04-25T01:03:53;3.88;;;1.65;;
15858;SDS011;8029;52.202;7.308;2023-04-25T01:06:19;2.78;;;1.88;;
15858;SDS011;8029;52.202;7.308;2023-04-25T01:08:47;2.17;;;1.73;;
15858;SDS011;8029;52.202;7.308;2023-04-25T01:11:13;3.40;;;1.90;;
15858;SDS011;8029;52.202;7.308;2023-04-25T01:13:39;5.88;;;1.92;;
15858;SDS011;8029;52.202;7.308;2023-04-25T01:16:05;3.38;;;1.80;;
15858;SDS011;8029;52.202;7.308;2023-04-25T01:18:31;9.52;;;2.75;;
15858;SDS011;8029;52.202;7.308;2023-04-25T01:21:02;6.40;;;1.92;;
15858;SDS011;8029;52.202;7.308;2023-04-25T01:23:32;4.32;;;2.53;;
15858;SDS011;8029;52.202;7.308;2023-04-25T01:25:58;3.75;;;2.25;;
15858;SDS011;8029;52.202;7.308;2023-04-25T01:28:25;2.50;;;1.95;;
15858;SDS011;8029;52.202;7.308;2023-04-25T01:30:51;6.18;;;2.50;;
15858;SDS011;8029;52.202;7.308;2023-04-25T01:33:17;2.53;;;1.80;;
15858;SDS011;8029;52.202;7.308;2023-04-25T01:35:44;2.90;;;2.00;;
15858;SDS011;8029;52.202;7.308;2023-04-25T01:38:12;3.15;;;1.85;;
15858;SDS011;8029;52.202;7.308;2023-04-25T01:40:38;4.05;;;2.20;;
15858;SDS011;8029;52.202;7.308;2023-04-25T01:43:04;6.45;;;2.20;;
15858;SDS011;8029;52.202;7.308;2023-04-25T01:45:31;8.35;;;2.28;;
15858;SDS011;8029;52.202;7.308;2023-04-25T01:47:57;6.88;;;2.70;;
15858;SDS011;8029;52.202;7.308;2023-04-25T01:50:24;8.88;;;2.17;;
15858;SDS011;8029;52.202;7.308;2023-04-25T01:52:50;8.93;;;3.15;;
15858;SDS011;8029;52.202;7.308;2023-04-25T01:55:16;3.67;;;2.17;;
15858;SDS011;8029;52.202;7.308;2023-04-25T01:57:42;5.55;;;2.42;;
15858;SDS011;8029;52.202;7.308;2023-04-25T02:00:08;3.25;;;2.03;;
15858;SDS011;8029;52.202;7.308;2023-04-25T02:02:35;6.63;;;2.33;;
15858;SDS011;8029;52.202;7.308;2023-04-25T02:05:01;11.98;;;2.85;;
15858;SDS011;8029;52.202;7.308;2023-04-25T02:07:27;4.68;;;3.13;;
15858;SDS011;8029;52.202;7.308;2023-04-25T02:09:53;4.38;;;2.55;;
15858;SDS011;8029;52.202;7.308;2023-04-25T02:12:19;4.63;;;2.33;;
15858;SDS011;8029;52.202;7.308;2023-04-25T02:14:45;4.03;;;2.60;;
15858;SDS011;8029;52.202;7.308;2023-04-25T02:17:11;3.00;;;2.00;;
15858;SDS011;8029;52.202;7.308;2023-04-25T02:19:37;4.45;;;2.55;;
15858;SDS011;8029;52.202;7.308;2023-04-25T02:22:03;5.65;;;2.53;;
15858;SDS011;8029;52.202;7.308;2023-04-25T02:24:29;8.75;;;2.35;;
15858;SDS011;8029;52.202;7.308;2023-04-25T02:26:56;4.38;;;1.85;;
15858;SDS011;8029;52.202;7.308;2023-04-25T02:29:22;6.47;;;2.47;;
15858;SDS011;8029;52.202;7.308;2023-04-25T02:31:48;5.90;;;3.33;;
15858;SDS011;8029;52.202;7.308;2023-04-25T02:34:14;6.60;;;2.72;;
15858;SDS011;8029;52.202;7.308;2023-04-25T02:36:40;6.60;;;2.50;;
15858;SDS011;8029;52.202;7.308;2023-04-25T02:39:06;9.13;;;2.58;;
15858;SDS011;8029;52.202;7.308;2023-04-25T02:41:32;11.18;;;2.65;;
15858;SDS011;8029;52.202;7.308;2023-04-25T02:43:58;4.18;;;2.22;;
15858;SDS011;8029;52.202;7.308;2023-04-25T02:46:24;4.82;;;2.20;;
15858;SDS011;8029;52.202;7.308;2023-04-25T02:48:50;5.43;;;2.72;;
15858;SDS011;8029;52.202;7.308;2023-04-25T02:51:16;4.28;;;2.33;;
15858;SDS011;8029;52.202;7.308;2023-04-25T02:53:42;4.72;;;2.22;;
15858;SDS011;8029;52.202;7.308;2023-04-25T02:56:08;5.70;;;2.85;;
15858;SDS011;8029;52.202;7.308;2023-04-25T02:58:34;5.30;;;2.97;;
15858;SDS011;8029;52.202;7.308;2023-04-25T03:01:00;4.30;;;2.25;;
15858;SDS011;8029;52.202;7.308;2023-04-25T03:03:26;9.77;;;2.72;;
15858;SDS011;8029;52.202;7.308;2023-04-25T03:05:52;8.82;;;3.03;;
15858;SDS011;8029;52.202;7.308;2023-04-25T03:08:18;6.70;;;3.05;;
15858;SDS011;8029;52.202;7.308;2023-04-25T03:10:45;3.33;;;2.30;;
15858;SDS011;8029;52.202;7.308;2023-04-25T03:13:11;3.45;;;1.95;;
15858;SDS011;8029;52.202;7.308;2023-04-25T03:15:38;4.97;;;3.05;;
15858;SDS011;8029;52.202;7.308;2023-04-25T03:18:05;3.90;;;1.95;;
15858;SDS011;8029;52.202;7.308;2023-04-25T03:20:30;3.65;;;1.90;;
15858;SDS011;8029;52.202;7.308;2023-04-25T03:22:56;6.47;;;2.92;;
15858;SDS011;8029;52.202;7.308;2023-04-25T03:25:22;5.97;;;2.88;;
15858;SDS011;8029;52.202;7.308;2023-04-25T03:27:48;6.88;;;2.72;;
15858;SDS011;8029;52.202;7.308;2023-04-25T03:30:14;9.43;;;3.47;;
15858;SDS011;8029;52.202;7.308;2023-04-25T03:32:40;10.70;;;3.10;;
15858;SDS011;8029;52.202;7.308;2023-04-25T03:35:06;5.55;;;2.65;;
15858;SDS011;8029;52.202;7.308;2023-04-25T03:37:33;3.90;;;2.53;;
15858;SDS011;8029;52.202;7.308;2023-04-25T03:39:58;5.97;;;2.50;;
15858;SDS011;8029;52.202;7.308;2023-04-25T03:42:24;5.40;;;2.22;;
15858;SDS011;8029;52.202;7.308;2023-04-25T03:44:51;4.85;;;2.85;;
15858;SDS011;8029;52.202;7.308;2023-04-25T03:47:17;2.22;;;1.88;;
15858;SDS011;8029;52.202;7.308;2023-04-25T03:49:43;1.88;;;1.75;;
15858;SDS011;8029;52.202;7.308;2023-04-25T03:52:09;6.32;;;2.38;;
15858;SDS011;8029;52.202;7.308;2023-04-25T03:54:35;7.38;;;2.45;;
15858;SDS011;8029;52.202;7.308;2023-04-25T03:57:01;4.70;;;2.55;;
15858;SDS011;8029;52.202;7.308;2023-04-25T03:59:27;3.17;;;2.08;;
15858;SDS011;8029;52.202;7.308;2023-04-25T04:01:53;3.45;;;2.35;;
15858;SDS011;8029;52.202;7.308;2023-04-25T04:04:19;6.55;;;1.70;;
15858;SDS011;8029;52.202;7.308;2023-04-25T04:06:45;7.57;;;2.83;;
15858;SDS011;8029;52.202;7.308;2023-04-25T04:09:11;22.83;;;3.85;;
15858;SDS011;8029;52.202;7.308;2023-04-25T04:11:38;4.25;;;2.38;;
15858;SDS011;8029;52.202;7.308;2023-04-25T04:14:07;4.32;;;2.30;;
15858;SDS011;8029;52.202;7.308;2023-04-25T04:16:35;5.00;;;2.45;;
15858;SDS011;8029;52.202;7.308;2023-04-25T04:19:02;6.00;;;2.08;;
15858;SDS011;8029;52.202;7.308;2023-04-25T04:21:28;15.95;;;3.05;;
15858;SDS011;8029;52.202;7.308;2023-04-25T04:23:54;3.63;;;2.22;;
15858;SDS011;8029;52.202;7.308;2023-04-25T04:26:22;4.20;;;2.65;;
15858;SDS011;8029;52.202;7.308;2023-04-25T04:28:49;6.95;;;2.33;;
15858;SDS011;8029;52.202;7.308;2023-04-25T04:31:19;10.45;;;2.65;;
15858;SDS011;8029;52.202;7.308;2023-04-25T04:33:46;7.07;;;2.63;;
15858;SDS011;8029;52.202;7.308;2023-04-25T04:36:12;2.67;;;2.30;;
15858;SDS011;8029;52.202;7.308;2023-04-25T04:38:38;5.60;;;2.35;;
15858;SDS011;8029;52.202;7.308;2023-04-25T04:41:06;3.42;;;2.10;;
15858;SDS011;8029;52.202;7.308;2023-04-25T04:43:32;4.50;;;1.92;;
15858;SDS011;8029;52.202;7.308;2023-04-25T04:45:58;2.83;;;1.60;;
15858;SDS011;8029;52.202;7.308;2023-04-25T04:48:24;5.75;;;2.65;;
15858;SDS011;8029;52.202;7.308;2023-04-25T04:50:51;11.25;;;1.98;;
15858;SDS011;8029;52.202;7.308;2023-04-25T04:53:17;2.53;;;1.95;;
15858;SDS011;8029;52.202;7.308;2023-04-25T04:55:43;3.17;;;2.17;;
15858;SDS011;8029;52.202;7.308;2023-04-25T04:58:09;10.70;;;2.55;;
15858;SDS011;8029;52.202;7.308;2023-04-25T05:00:34;7.03;;;3.03;;
15858;SDS011;8029;52.202;7.308;2023-04-25T05:03:00;1.70;;;1.30;;
15858;SDS011;8029;52.202;7.308;2023-04-25T05:05:26;4.10;;;1.73;;
15858;SDS011;8029;52.202;7.308;2023-04-25T05:07:52;3.38;;;1.98;;
15858;SDS011;8029;52.202;7.308;2023-04-25T05:10:18;4.95;;;2.30;;
15858;SDS011;8029;52.202;7.308;2023-04-25T05:12:45;13.45;;;2.50;;
15858;SDS011;8029;52.202;7.308;2023-04-25T05:15:11;1.90;;;1.42;;
15858;SDS011;8029;52.202;7.308;2023-04-25T05:17:37;7.25;;;1.83;;
15858;SDS011;8029;52.202;7.308;2023-04-25T05:20:04;4.22;;;2.60;;
15858;SDS011;8029;52.202;7.308;2023-04-25T05:22:30;3.80;;;1.90;;
15858;SDS011;8029;52.202;7.308;2023-04-25T05:24:56;5.68;;;2.58;;
15858;SDS011;8029;52.202;7.308;2023-04-25T05:27:24;4.82;;;2.35;;
15858;SDS011;8029;52.202;7.308;2023-04-25T05:29:50;3.88;;;1.95;;
15858;SDS011;8029;52.202;7.308;2023-04-25T05:32:16;1.40;;;1.30;;
15858;SDS011;8029;52.202;7.308;2023-04-25T05:34:42;3.58;;;1.58;;
15858;SDS011;8029;52.202;7.308;2023-04-25T05:37:08;13.93;;;1.73;;
15858;SDS011;8029;52.202;7.308;2023-04-25T05:39:34;5.03;;;2.17;;
15858;SDS011;8029;52.202;7.308;2023-04-25T05:42:01;6.82;;;1.73;;
15858;SDS011;8029;52.202;7.308;2023-04-25T05:44:27;2.65;;;1.92;;
15858;SDS011;8029;52.202;7.308;2023-04-25T05:46:53;5.18;;;2.10;;
15858;SDS011;8029;52.202;7.308;2023-04-25T05:49:20;8.43;;;2.40;;
15858;SDS011;8029;52.202;7.308;2023-04-25T05:51:46;7.30;;;2.42;;
15858;SDS011;8029;52.202;7.308;2023-04-25T05:54:12;2.33;;;1.40;;
15858;SDS011;8029;52.202;7.308;2023-04-25T05:56:38;3.92;;;2.40;;
15858;SDS011;8029;52.202;7.308;2023-04-25T05:59:04;2.75;;;1.73;;
15858;SDS011;8029;52.202;7.308;2023-04-25T06:01:30;2.72;;;1.80;;
15858;SDS011;8029;52.202;7.308;2023-04-25T06:03:56;3.65;;;1.90;;
15858;SDS011;8029;52.202;7.308;2023-04-25T06:06:22;2.25;;;1.77;;
15858;SDS011;8029;52.202;7.308;2023-04-25T06:08:48;2.70;;;1.48;;
15858;SDS011;8029;52.202;7.308;2023-04-25T06:11:15;2.30;;;1.90;;
15858;SDS011;8029;52.202;7.308;2023-04-25T06:13:41;2.58;;;1.48;;
15858;SDS011;8029;52.202;7.308;2023-04-25T06:16:07;4.53;;;1.85;;
15858;SDS011;8029;52.202;7.308;2023-04-25T06:18:33;2.88;;;1.77;;
15858;SDS011;8029;52.202;7.308;2023-04-25T06:20:59;2.30;;;1.48;;
15858;SDS011;8029;52.202;7.308;2023-04-25T06:23:25;9.75;;;2.67;;
15858;SDS011;8029;52.202;7.308;2023-04-25T06:25:51;4.10;;;2.25;;
15858;SDS011;8029;52.202;7.308;2023-04-25T06:28:17;3.33;;;2.28;;
15858;SDS011;8029;52.202;7.308;2023-04-25T06:30:43;1.58;;;1.20;;
15858;SDS011;8029;52.202;7.308;2023-04-25T06:33:09;3.00;;;2.08;;
15858;SDS011;8029;52.202;7.308;2023-04-25T06:35:35;5.18;;;1.95;;
15858;SDS011;8029;52.202;7.308;2023-04-25T06:38:01;5.63;;;1.83;;
15858;SDS011;8029;52.202;7.308;2023-04-25T06:40:27;2.60;;;1.95;;
15858;SDS011;8029;52.202;7.308;2023-04-25T06:42:53;5.95;;;1.52;;
15858;SDS011;8029;52.202;7.308;2023-04-25T06:45:19;1.85;;;1.67;;
15858;SDS011;8029;52.202;7.308;2023-04-25T06:47:45;4.47;;;2.10;;
15858;SDS011;8029;52.202;7.308;2023-04-25T06:50:11;2.28;;;1.67;;
15858;SDS011;8029;52.202;7.308;2023-04-25T06:52:37;7.60;;;2.85;;
15858;SDS011;8029;52.202;7.308;2023-04-25T06:55:03;2.33;;;1.35;;
15858;SDS011;8029;52.202;7.308;2023-04-25T06:57:30;6.88;;;2.40;;
15858;SDS011;8029;52.202;7.308;2023-04-25T06:59:56;2.65;;;1.80;;
15858;SDS011;8029;52.202;7.308;2023-04-25T07:02:22;7.97;;;2.00;;
15858;SDS011;8029;52.202;7.308;2023-04-25T07:04:48;3.28;;;1.65;;
15858;SDS011;8029;52.202;7.308;2023-04-25T07:07:14;2.67;;;1.73;;
15858;SDS011;8029;52.202;7.308;2023-04-25T07:09:40;6.60;;;2.55;;
15858;SDS011;8029;52.202;7.308;2023-04-25T07:12:06;5.78;;;2.05;;
15858;SDS011;8029;52.202;7.308;2023-04-25T07:14:32;6.45;;;2.83;;
15858;SDS011;8029;52.202;7.308;2023-04-25T07:16:58;8.82;;;2.95;;
15858;SDS011;8029;52.202;7.308;2023-04-25T07:19:24;1.98;;;1.55;;
15858;SDS011;8029;52.202;7.308;2023-04-25T07:21:51;4.78;;;2.00;;
15858;SDS011;8029;52.202;7.308;2023-04-25T07:24:17;8.95;;;2.95;;
15858;SDS011;8029;52.202;7.308;2023-04-25T07:26:43;5.07;;;2.35;;
15858;SDS011;8029;52.202;7.308;2023-04-25T07:29:09;3.55;;;1.95;;
15858;SDS011;8029;52.202;7.308;2023-04-25T07:31:35;4.72;;;1.42;;
15858;SDS011;8029;52.202;7.308;2023-04-25T07:34:01;3.22;;;1.75;;
15858;SDS011;8029;52.202;7.308;2023-04-25T07:36:27;2.05;;;1.60;;
15858;SDS011;8029;52.202;7.308;2023-04-25T07:38:53;5.32;;;1.95;;
15858;SDS011;8029;52.202;7.308;2023-04-25T07:41:19;2.08;;;1.25;;
15858;SDS011;8029;52.202;7.308;2023-04-25T07:43:45;2.30;;;1.60;;
15858;SDS011;8029;52.202;7.308;2023-04-25T07:46:11;1.20;;;1.10;;
15858;SDS011;8029;52.202;7.308;2023-04-25T07:48:37;1.13;;;0.85;;
15858;SDS011;8029;52.202;7.308;2023-04-25T07:51:03;6.22;;;1.88;;
15858;SDS011;8029;52.202;7.308;2023-04-25T07:53:30;3.97;;;1.63;;
15858;SDS011;8029;52.202;7.308;2023-04-25T07:55:57;3.53;;;1.55;;
15858;SDS011;8029;52.202;7.308;2023-04-25T07:58:22;3.70;;;1.52;;
15858;SDS011;8029;52.202;7.308;2023-04-25T08:00:48;2.30;;;1.58;;
15858;SDS011;8029;52.202;7.308;2023-04-25T08:03:14;1.95;;;0.95;;
15858;SDS011;8029;52.202;7.308;2023-04-25T08:05:40;27.40;;;2.15;;
15858;SDS011;8029;52.202;7.308;2023-04-25T08:08:06;3.20;;;1.50;;
15858;SDS011;8029;52.202;7.308;2023-04-25T08:10:33;2.72;;;1.42;;
15858;SDS011;8029;52.202;7.308;2023-04-25T08:12:59;7.45;;;1.92;;
15858;SDS011;8029;52.202;7.308;2023-04-25T08:15:25;3.78;;;1.73;;
15858;SDS011;8029;52.202;7.308;2023-04-25T08:17:51;10.43;;;2.25;;
15858;SDS011;8029;52.202;7.308;2023-04-25T08:20:17;1.90;;;1.13;;
15858;SDS011;8029;52.202;7.308;2023-04-25T08:22:43;1.90;;;0.95;;
15858;SDS011;8029;52.202;7.308;2023-04-25T08:25:09;1.92;;;1.70;;
15858;SDS011;8029;52.202;7.308;2023-04-25T08:27:35;1.20;;;1.10;;
15858;SDS011;8029;52.202;7.308;2023-04-25T08:30:02;8.85;;;2.13;;
15858;SDS011;8029;52.202;7.308;2023-04-25T08:32:28;7.38;;;1.60;;
15858;SDS011;8029;52.202;7.308;2023-04-25T08:34:54;0.65;;;0.52;;
15858;SDS011;8029;52.202;7.308;2023-04-25T08:37:20;4.07;;;1.20;;
15858;SDS011;8029;52.202;7.308;2023-04-25T08:39:46;4.68;;;1.25;;
15858;SDS011;8029;52.202;7.308;2023-04-25T08:42:17;3.10;;;1.42;;
15858;SDS011;8029;52.202;7.308;2023-04-25T08:44:44;3.95;;;1.40;;
15858;SDS011;8029;52.202;7.308;2023-04-25T08:47:11;0.75;;;0.70;;
15858;SDS011;8029;52.202;7.308;2023-04-25T08:49:37;0.77;;;0.60;;
15858;SDS011;8029;52.202;7.308;2023-04-25T08:52:04;3.30;;;1.38;;
15858;SDS011;8029;52.202;7.308;2023-04-25T08:54:31;1.13;;;1.00;;
15858;SDS011;8029;52.202;7.308;2023-04-25T08:56:58;1.90;;;0.95;;
15858;SDS011;8029;52.202;7.308;2023-04-25T08:59:29;3.22;;;1.15;;
15858;SDS011;8029;52.202;7.308;2023-04-25T09:01:55;1.50;;;1.25;;
15858;SDS011;8029;52.202;7.308;2023-04-25T09:04:21;1.13;;;0.63;;
15858;SDS011;8029;52.202;7.308;2023-04-25T09:06:47;1.13;;;0.77;;
15858;SDS011;8029;52.202;7.308;2023-04-25T09:09:13;3.42;;;1.70;;
15858;SDS011;8029;52.202;7.308;2023-04-25T09:11:39;0.80;;;0.68;;
15858;SDS011;8029;52.202;7.308;2023-04-25T09:14:39;2.00;;;1.23;;
15858;SDS011;8029;52.202;7.308;2023-04-25T09:17:02;2.42;;;1.75;;
15858;SDS011;8029;52.202;7.308;2023-04-25T09:19:30;1.25;;;0.85;;
15858;SDS011;8029;52.202;7.308;2023-04-25T09:21:57;2.53;;;1.23;;
15858;SDS011;8029;52.202;7.308;2023-04-25T09:24:33;1.27;;;0.90;;
15858;SDS011;8029;52.202;7.308;2023-04-25T09:27:02;1.90;;;0.80;;
15858;SDS011;8029;52.202;7.308;2023-04-25T09:29:29;1.70;;;1.00;;
15858;SDS011;8029;52.202;7.308;2023-04-25T09:32:10;3.65;;;0.93;;
15858;SDS011;8029;52.202;7.308;2023-04-25T09:34:40;0.88;;;0.88;;
15858;SDS011;8029;52.202;7.308;2023-04-25T09:37:09;2.22;;;1.40;;
15858;SDS011;8029;52.202;7.308;2023-04-25T09:39:36;4.78;;;2.05;;
15858;SDS011;8029;52.202;7.308;2023-04-25T09:42:03;6.75;;;2.15;;
15858;SDS011;8029;52.202;7.308;2023-04-25T09:44:29;1.90;;;0.98;;
15858;SDS011;8029;52.202;7.308;2023-04-25T09:46:55;2.15;;;1.10;;
15858;SDS011;8029;52.202;7.308;2023-04-25T09:49:22;1.70;;;1.02;;
15858;SDS011;8029;52.202;7.308;2023-04-25T09:51:58;3.15;;;1.58;;
15858;SDS011;8029;52.202;7.308;2023-04-25T09:54:24;1.40;;;1.08;;
15858;SDS011;8029;52.202;7.308;2023-04-25T09:56:51;2.10;;;1.20;;
15858;SDS011;8029;52.202;7.308;2023-04-25T09:59:21;1.33;;;0.73;;
15858;SDS011;8029;52.202;7.308;2023-04-25T10:01:48;0.77;;;0.77;;
15858;SDS011;8029;52.202;7.308;2023-04-25T10:04:16;2.40;;;1.30;;
15858;SDS011;8029;52.202;7.308;2023-04-25T10:06:45;2.55;;;1.50;;
15858;SDS011;8029;52.202;7.308;2023-04-25T10:09:12;1.17;;;1.05;;
15858;SDS011;8029;52.202;7.308;2023-04-25T10:11:38;1.17;;;0.50;;
15858;SDS011;8029;52.202;7.308;2023-04-25T10:14:05;0.47;;;0.47;;
15858;SDS011;8029;52.202;7.308;2023-04-25T10:16:31;1.15;;;0.77;;
15858;SDS011;8029;52.202;7.308;2023-04-25T10:18:58;4.47;;;1.17;;
15858;SDS011;8029;52.202;7.308;2023-04-25T10:21:23;2.03;;;1.20;;
15858;SDS011;8029;52.202;7.308;2023-04-25T10:23:51;1.20;;;1.10;;
15858;SDS011;8029;52.202;7.308;2023-04-25T10:26:18;4.43;;;1.92;;
15858;SDS011;8029;52.202;7.308;2023-04-25T10:28:57;3.33;;;1.15;;
15858;SDS011;8029;52.202;7.308;2023-04-25T10:31:24;2.25;;;1.20;;
15858;SDS011;8029;52.202;7.308;2023-04-25T10:33:50;0.95;;;0.88;;
15858;SDS011;8029;52.202;7.308;2023-04-25T10:36:20;2.53;;;1.30;;
15858;SDS011;8029;52.202;7.308;2023-04-25T10:38:47;4.03;;;0.98;;
15858;SDS011;8029;52.202;7.308;2023-04-25T10:41:13;1.20;;;0.70;;
15858;SDS011;8029;52.202;7.308;2023-04-25T10:43:43;1.50;;;0.90;;
15858;SDS011;8029;52.202;7.308;2023-04-25T10:48:51;0.55;;;0.52;;
15858;SDS011;8029;52.202;7.308;2023-04-25T10:51:19;3.70;;;1.38;;
15858;SDS011;8029;52.202;7.308;2023-04-25T10:53:45;2.80;;;0.90;;
15858;SDS011;8029;52.202;7.308;2023-04-25T10:56:22;15.80;;;1.10;;
15858;SDS011;8029;52.202;7.308;2023-04-25T10:58:48;2.33;;;1.17;;
15858;SDS011;8029;52.202;7.308;2023-04-25T11:01:15;0.65;;;0.65;;
15858;SDS011;8029;52.202;7.308;2023-04-25T11:03:44;1.42;;;0.85;;
15858;SDS011;8029;52.202;7.308;2023-04-25T11:06:16;1.75;;;1.00;;
15858;SDS011;8029;52.202;7.308;2023-04-25T11:08:50;0.90;;;0.57;;
15858;SDS011;8029;52.202;7.308;2023-04-25T11:11:17;1.00;;;0.70;;
15858;SDS011;8029;52.202;7.308;2023-04-25T11:13:43;0.55;;;0.47;;
15858;SDS011;8029;52.202;7.308;2023-04-25T11:16:09;1.55;;;0.68;;
15858;SDS011;8029;52.202;7.308;2023-04-25T11:18:36;0.80;;;0.47;;
15858;SDS011;8029;52.202;7.308;2023-04-25T11:21:05;1.92;;;1.13;;
15858;SDS011;8029;52.202;7.308;2023-04-25T11:23:31;0.98;;;0.70;;
15858;SDS011;8029;52.202;7.308;2023-04-25T11:25:57;1.55;;;0.50;;
15858;SDS011;8029;52.202;7.308;2023-04-25T11:28:25;1.45;;;1.00;;
15858;SDS011;8029;52.202;7.308;2023-04-25T11:30:51;2.58;;;1.23;;
15858;SDS011;8029;52.202;7.308;2023-04-25T11:33:18;1.70;;;1.00;;
15858;SDS011;8029;52.202;7.308;2023-04-25T11:35:48;0.85;;;0.70;;
15858;SDS011;8029;52.202;7.308;2023-04-25T11:38:14;0.95;;;0.85;;
15858;SDS011;8029;52.202;7.308;2023-04-25T11:40:40;0.90;;;0.60;;
15858;SDS011;8029;52.202;7.308;2023-04-25T11:43:06;1.73;;;1.15;;
15858;SDS011;8029;52.202;7.308;2023-04-25T11:45:32;2.10;;;1.10;;
15858;SDS011;8029;52.202;7.308;2023-04-25T11:47:58;6.93;;;1.30;;
15858;SDS011;8029;52.202;7.308;2023-04-25T11:50:24;0.93;;;0.77;;
15858;SDS011;8029;52.202;7.308;2023-04-25T11:52:50;1.30;;;0.90;;
15858;SDS011;8029;52.202;7.308;2023-04-25T11:55:18;1.13;;;0.88;;
15858;SDS011;8029;52.202;7.308;2023-04-25T11:57:45;2.35;;;1.30;;
15858;SDS011;8029;52.202;7.308;2023-04-25T12:00:15;1.35;;;0.88;;
15858;SDS011;8029;52.202;7.308;2023-04-25T12:02:46;0.70;;;0.65;;
15858;SDS011;8029;52.202;7.308;2023-04-25T12:05:13;1.17;;;0.98;;
15858;SDS011;8029;52.202;7.308;2023-04-25T12:07:42;0.55;;;0.47;;
15858;SDS011;8029;52.202;7.308;2023-04-25T12:12:36;1.48;;;1.38;;
15858;SDS011;8029;52.202;7.308;2023-04-25T12:15:35;0.63;;;0.63;;
15858;SDS011;8029;52.202;7.308;2023-04-25T12:17:55;0.93;;;0.77;;
15858;SDS011;8029;52.202;7.308;2023-04-25T12:20:23;2.50;;;0.90;;
15858;SDS011;8029;52.202;7.308;2023-04-25T12:22:50;1.10;;;0.82;;
15858;SDS011;8029;52.202;7.308;2023-04-25T12:25:35;1.25;;;0.75;;
15858;SDS011;8029;52.202;7.308;2023-04-25T12:33:20;1.35;;;0.98;;
15858;SDS011;8029;52.202;7.308;2023-04-25T12:35:46;3.00;;;0.90;;
15858;SDS011;8029;52.202;7.308;2023-04-25T12:38:20;1.13;;;0.75;;
15858;SDS011;8029;52.202;7.308;2023-04-25T12:40:46;0.93;;;0.63;;
15858;SDS011;8029;52.202;7.308;2023-04-25T12:43:12;1.35;;;0.90;;
15858;SDS011;8029;52.202;7.308;2023-04-25T12:45:38;1.35;;;1.23;;
15858;SDS011;8029;52.202;7.308;2023-04-25T12:48:04;1.17;;;0.80;;
15858;SDS011;8029;52.202;7.308;2023-04-25T12:50:30;2.13;;;1.17;;
15858;SDS011;8029;52.202;7.308;2023-04-25T12:52:56;0.75;;;0.75;;
15858;SDS011;8029;52.202;7.308;2023-04-25T12:55:22;2.45;;;1.17;;
15858;SDS011;8029;52.202;7.308;2023-04-25T12:57:48;0.30;;;0.30;;
15858;SDS011;8029;52.202;7.308;2023-04-25T13:00:14;1.73;;;1.25;;
15858;SDS011;8029;52.202;7.308;2023-04-25T13:02:43;1.25;;;1.15;;
15858;SDS011;8029;52.202;7.308;2023-04-25T13:05:09;1.35;;;0.80;;
15858;SDS011;8029;52.202;7.308;2023-04-25T13:07:36;4.20;;;1.50;;
15858;SDS011;8029;52.202;7.308;2023-04-25T13:10:02;0.55;;;0.55;;
15858;SDS011;8029;52.202;7.308;2023-04-25T13:12:28;1.30;;;0.93;;
15858;SDS011;8029;52.202;7.308;2023-04-25T13:14:54;2.17;;;1.42;;
15858;SDS011;8029;52.202;7.308;2023-04-25T13:17:20;0.45;;;0.45;;
15858;SDS011;8029;52.202;7.308;2023-04-25T13:19:46;1.02;;;0.95;;
15858;SDS011;8029;52.202;7.308;2023-04-25T13:22:12;0.88;;;0.88;;
15858;SDS011;8029;52.202;7.308;2023-04-25T13:24:40;1.38;;;0.93;;
15858;SDS011;8029;52.202;7.308;2023-04-25T13:27:06;2.00;;;1.27;;
15858;SDS011;8029;52.202;7.308;2023-04-25T13:29:32;4.47;;;1.50;;
15858;SDS011;8029;52.202;7.308;2023-04-25T13:32:00;1.33;;;0.95;;
15858;SDS011;8029;52.202;7.308;2023-04-25T13:34:26;2.00;;;1.20;;
15858;SDS011;8029;52.202;7.308;2023-04-25T13:36:52;1.08;;;0.80;;
15858;SDS011;8029;52.202;7.308;2023-04-25T13:39:18;0.90;;;0.80;;
15858;SDS011;8029;52.202;7.308;2023-04-25T13:41:44;1.60;;;0.80;;
15858;SDS011;8029;52.202;7.308;2023-04-25T13:44:10;1.75;;;0.95;;
15858;SDS011;8029;52.202;7.308;2023-04-25T13:46:36;3.40;;;0.90;;
15858;SDS011;8029;52.202;7.308;2023-04-25T13:49:03;0.70;;;0.60;;
15858;SDS011;8029;52.202;7.308;2023-04-25T13:51:29;0.77;;;0.50;;
15858;SDS011;8029;52.202;7.308;2023-04-25T13:53:55;1.13;;;0.52;;
15858;SDS011;8029;52.202;7.308;2023-04-25T13:56:21;0.63;;;0.63;;
15858;SDS011;8029;52.202;7.308;2023-04-25T13:58:48;1.20;;;0.95;;
15858;SDS011;8029;52.202;7.308;2023-04-25T14:01:14;2.05;;;1.15;;
15858;SDS011;8029;52.202;7.308;2023-04-25T14:03:40;1.55;;;0.95;;
15858;SDS011;8029;52.202;7.308;2023-04-25T14:06:07;2.17;;;1.05;;
15858;SDS011;8029;52.202;7.308;2023-04-25T14:08:33;1.38;;;0.75;;
15858;SDS011;8029;52.202;7.308;2023-04-25T14:10:59;0.70;;;0.70;;
15858;SDS011;8029;52.202;7.308;2023-04-25T14:13:26;0.90;;;0.90;;
15858;SDS011;8029;52.202;7.308;2023-04-25T14:15:52;0.50;;;0.50;;
15858;SDS011;8029;52.202;7.308;2023-04-25T14:18:18;1.38;;;0.88;;
15858;SDS011;8029;52.202;7.308;2023-04-25T14:20:44;0.43;;;0.43;;
15858;SDS011;8029;52.202;7.308;2023-04-25T14:23:10;0.63;;;0.50;;
15858;SDS011;8029;52.202;7.308;2023-04-25T14:25:36;1.90;;;0.98;;
15858;SDS011;8029;52.202;7.308;2023-04-25T14:28:02;0.80;;;0.47;;
15858;SDS011;8029;52.202;7.308;2023-04-25T14:30:29;1.73;;;1.17;;
15858;SDS011;8029;52.202;7.308;2023-04-25T14:32:55;1.40;;;0.85;;
15858;SDS011;8029;52.202;7.308;2023-04-25T14:35:21;0.50;;;0.50;;
15858;SDS011;8029;52.202;7.308;2023-04-25T14:37:47;1.90;;;1.10;;
15858;SDS011;8029;52.202;7.308;2023-04-25T14:40:13;1.52;;;0.90;;
15858;SDS011;8029;52.202;7.308;2023-04-25T14:42:40;11.23;;;0.90;;
15858;SDS011;8029;52.202;7.308;2023-04-25T14:45:06;2.47;;;1.65;;
15858;SDS011;8029;52.202;7.308;2023-04-25T14:47:33;2.05;;;0.85;;
15858;SDS011;8029;52.202;7.308;2023-04-25T14:49:59;1.60;;;1.10;;
15858;SDS011;8029;52.202;7.308;2023-04-25T14:52:26;0.65;;;0.63;;
15858;SDS011;8029;52.202;7.308;2023-04-25T14:54:52;0.60;;;0.60;;
15858;SDS011;8029;52.202;7.308;2023-04-25T14:57:18;1.40;;;0.73;;
15858;SDS011;8029;52.202;7.308;2023-04-25T14:59:44;1.55;;;0.73;;
15858;SDS011;8029;52.202;7.308;2023-04-25T15:02:11;0.70;;;0.70;;
15858;SDS011;8029;52.202;7.308;2023-04-25T15:04:37;0.40;;;0.40;;
15858;SDS011;8029;52.202;7.308;2023-04-25T15:07:02;1.52;;;1.05;;